createdAt,value
2017-09-14T00:00:16.269Z,16.48
2017-09-14T00:05:19.005Z,16.48
2017-09-14T00:10:20.933Z,16.38
2017-09-14T00:15:22.954Z,16.48
2017-09-14T00:20:24.911Z,16.44
2017-09-14T00:25:27.704Z,16.52
2017-09-14T00:30:29.684Z,16.44
2017-09-14T00:35:31.688Z,16.36
2017-09-14T00:40:34.586Z,16.25
2017-09-14T00:45:36.586Z,16.24
2017-09-14T00:50:38.654Z,16.04
2017-09-14T00:55:40.605Z,15.82
2017-09-14T01:00:42.598Z,15.70
2017-09-14T01:05:45.391Z,15.66
2017-09-14T01:10:47.510Z,15.62
2017-09-14T01:15:49.640Z,15.58
2017-09-14T01:20:51.933Z,15.46
2017-09-14T01:25:54.210Z,15.41
2017-09-14T01:30:56.296Z,15.44
2017-09-14T01:35:58.413Z,15.47
2017-09-14T01:41:01.302Z,15.63
2017-09-14T01:46:03.321Z,15.55
2017-09-14T01:51:05.305Z,15.49
2017-09-14T01:56:07.336Z,15.52
2017-09-14T02:01:09.343Z,15.53
2017-09-14T02:06:12.185Z,15.46
2017-09-14T02:11:14.253Z,15.24
2017-09-14T02:16:16.274Z,15.13
2017-09-14T02:21:24.255Z,15.05
2017-09-14T02:26:26.302Z,14.96
2017-09-14T02:31:28.331Z,14.91
2017-09-14T02:36:30.387Z,14.92
2017-09-14T02:41:32.353Z,14.86
2017-09-14T02:46:34.339Z,14.77
2017-09-14T02:51:37.047Z,14.76
2017-09-14T02:56:39.031Z,14.73
2017-09-14T03:06:50.132Z,14.66
2017-09-14T03:11:52.905Z,14.67
2017-09-14T03:16:54.883Z,14.61
2017-09-14T03:21:56.862Z,14.63
2017-09-14T03:26:58.862Z,14.66
2017-09-14T03:32:01.315Z,14.61
2017-09-14T03:37:03.400Z,14.55
2017-09-14T03:42:05.387Z,14.59
2017-09-14T03:47:07.421Z,14.46
2017-09-14T03:52:10.183Z,14.52
2017-09-14T03:57:12.800Z,14.54
2017-09-14T04:02:15.028Z,14.44
2017-09-14T04:07:19.467Z,14.46
2017-09-14T04:12:21.696Z,14.42
2017-09-14T04:17:25.343Z,14.39
2017-09-14T04:22:27.604Z,14.40
2017-09-14T04:27:29.662Z,14.36
2017-09-14T04:32:31.649Z,14.33
2017-09-14T04:37:33.714Z,14.41
2017-09-14T04:42:35.707Z,14.45
2017-09-14T04:47:38.596Z,14.41
2017-09-14T04:52:40.601Z,14.42
2017-09-14T04:57:42.585Z,14.42
2017-09-14T05:02:44.663Z,14.40
2017-09-14T05:07:46.629Z,14.57
2017-09-14T05:12:48.630Z,14.55
2017-09-14T05:17:50.644Z,14.62
2017-09-14T05:22:52.712Z,14.66
2017-09-14T05:28:00.402Z,14.69
2017-09-14T05:33:05.925Z,14.75
2017-09-14T05:38:09.110Z,14.71
2017-09-14T05:43:11.189Z,14.83
2017-09-14T05:48:13.203Z,14.86
2017-09-14T05:53:16.483Z,14.98
2017-09-14T05:58:18.464Z,15.16
2017-09-14T06:03:20.546Z,15.27
2017-09-14T06:13:32.232Z,15.24
2017-09-14T06:18:34.169Z,15.36
2017-09-14T06:23:36.148Z,15.62
2017-09-14T06:28:38.862Z,15.93
2017-09-14T06:33:40.855Z,16.18
2017-09-14T06:38:42.964Z,16.71
2017-09-14T06:43:45.008Z,16.90
2017-09-14T06:48:47.033Z,17.06
2017-09-14T06:53:49.059Z,17.01
2017-09-14T06:58:51.060Z,16.80
2017-09-14T07:03:53.028Z,16.83
2017-09-14T07:08:55.028Z,16.77
2017-09-14T07:13:57.693Z,17.00
2017-09-14T07:18:59.651Z,16.96
2017-09-14T07:24:01.711Z,17.02
2017-09-14T07:29:03.655Z,16.88
2017-09-14T07:34:05.604Z,16.57
2017-09-14T07:39:07.593Z,16.86
2017-09-14T07:44:09.564Z,17.60
2017-09-14T07:49:11.531Z,17.77
2017-09-14T07:54:13.616Z,17.80
2017-09-14T07:59:15.604Z,17.66
2017-09-14T08:04:18.496Z,17.77
2017-09-14T08:09:20.487Z,18.18
2017-09-14T08:14:22.485Z,18.17
2017-09-14T08:19:24.561Z,18.19
2017-09-14T08:24:26.638Z,18.42
2017-09-14T08:29:29.389Z,18.83
2017-09-14T08:34:31.496Z,18.81
2017-09-14T08:39:34.230Z,18.64
2017-09-14T08:44:36.275Z,18.22
2017-09-14T08:49:38.308Z,18.35
2017-09-14T08:54:40.346Z,18.61
2017-09-14T08:59:42.388Z,18.71
2017-09-14T09:04:44.475Z,18.35
2017-09-14T09:09:46.467Z,18.38
2017-09-14T09:14:48.522Z,18.29
2017-09-14T09:19:50.510Z,17.98
2017-09-14T09:24:52.456Z,18.39
2017-09-14T09:29:54.464Z,18.99
2017-09-14T09:34:56.475Z,19.43
2017-09-14T09:39:58.436Z,19.49
2017-09-14T09:45:00.416Z,19.52
2017-09-14T09:50:02.429Z,19.21
2017-09-14T09:55:04.436Z,18.85
2017-09-14T10:00:06.610Z,18.69
2017-09-14T10:05:12.950Z,18.59
2017-09-14T10:10:20.139Z,18.54
2017-09-14T10:15:22.282Z,18.82
2017-09-14T10:20:24.295Z,19.19
2017-09-14T10:25:27.091Z,19.79
2017-09-14T10:30:29.144Z,19.79
2017-09-14T10:35:31.197Z,19.96
2017-09-14T10:40:35.159Z,19.81
2017-09-14T10:45:37.211Z,20.11
2017-09-14T10:50:39.268Z,19.88
2017-09-14T10:55:41.337Z,19.65
2017-09-14T11:00:43.281Z,19.60
2017-09-14T11:05:45.326Z,19.66
2017-09-14T11:10:47.367Z,19.50
2017-09-14T11:15:49.426Z,19.52
2017-09-14T11:20:52.199Z,18.90
2017-09-14T11:25:54.236Z,19.08
2017-09-14T11:30:56.742Z,19.53
2017-09-14T11:35:58.722Z,19.61
2017-09-14T11:41:01.478Z,19.34
2017-09-14T11:46:04.539Z,19.16
2017-09-14T11:51:06.695Z,19.04
2017-09-14T11:56:09.418Z,19.24
2017-09-14T12:01:11.422Z,19.39
2017-09-14T12:06:13.440Z,19.40
2017-09-14T12:11:15.491Z,19.22
2017-09-14T12:16:17.520Z,19.18
2017-09-14T12:21:19.526Z,19.00
2017-09-14T12:26:21.526Z,19.52
2017-09-14T12:31:23.510Z,20.01
2017-09-14T12:36:25.488Z,19.97
2017-09-14T12:41:27.581Z,20.11
2017-09-14T12:46:29.547Z,20.23
2017-09-14T12:51:31.503Z,20.80
2017-09-14T12:56:34.257Z,20.53
2017-09-14T13:01:36.280Z,20.26
2017-09-14T13:06:38.304Z,20.12
2017-09-14T13:11:40.596Z,20.10
2017-09-14T13:16:42.656Z,20.17
2017-09-14T13:21:45.469Z,20.44
2017-09-14T13:26:47.510Z,20.31
2017-09-14T13:31:49.497Z,19.89
2017-09-14T13:36:51.510Z,19.71
2017-09-14T13:41:53.543Z,19.13
2017-09-14T13:46:56.320Z,18.94
2017-09-14T13:51:58.382Z,18.23
2017-09-14T13:57:01.388Z,17.40
2017-09-14T14:02:03.438Z,17.26
2017-09-14T14:07:05.503Z,17.66
2017-09-14T14:12:07.527Z,18.09
2017-09-14T14:17:09.580Z,18.23
2017-09-14T14:22:11.613Z,18.27
2017-09-14T14:27:13.597Z,18.45
2017-09-14T14:32:16.395Z,18.61
2017-09-14T14:37:18.405Z,18.52
2017-09-14T14:42:20.440Z,18.59
2017-09-14T14:47:22.493Z,18.30
2017-09-14T14:52:24.500Z,18.36
2017-09-14T14:57:26.521Z,18.24
2017-09-14T15:02:28.537Z,17.88
2017-09-14T15:07:30.545Z,17.09
2017-09-14T15:12:32.516Z,16.24
2017-09-14T15:17:34.635Z,16.15
2017-09-14T15:22:37.404Z,16.10
2017-09-14T15:27:39.436Z,16.24
2017-09-14T15:32:47.353Z,16.24
2017-09-14T15:37:53.106Z,16.26
2017-09-14T15:43:01.256Z,16.31
2017-09-14T15:48:14.426Z,16.47
2017-09-14T15:53:16.552Z,16.50
2017-09-14T15:58:19.018Z,16.57
2017-09-14T16:03:21.084Z,16.66
2017-09-14T16:08:27.831Z,16.81
2017-09-14T16:13:30.229Z,16.74
2017-09-14T16:18:32.227Z,16.70
2017-09-14T16:23:34.168Z,16.64
2017-09-14T16:28:36.990Z,16.66
2017-09-14T16:33:39.016Z,16.50
2017-09-14T16:38:41.114Z,16.24
2017-09-14T16:43:43.080Z,16.23
2017-09-14T16:48:45.034Z,16.17
2017-09-14T16:53:47.120Z,16.08
2017-09-14T16:58:49.156Z,16.16
2017-09-14T17:03:51.140Z,16.06
2017-09-14T17:08:53.241Z,16.01
2017-09-14T17:13:55.374Z,15.96
2017-09-14T17:18:57.348Z,15.81
2017-09-14T17:23:59.690Z,15.65
2017-09-14T17:29:01.675Z,15.54
2017-09-14T17:34:04.382Z,15.53
2017-09-14T17:39:06.372Z,15.44
2017-09-14T17:44:08.494Z,15.61
2017-09-14T17:49:11.130Z,15.61
2017-09-14T17:54:14.051Z,15.57
2017-09-14T17:59:16.037Z,15.61
2017-09-14T18:04:18.753Z,15.50
2017-09-14T18:09:20.763Z,15.52
2017-09-14T18:14:28.131Z,15.51
2017-09-14T18:19:30.881Z,15.37
2017-09-14T18:24:32.844Z,15.42
2017-09-14T18:29:35.525Z,15.45
2017-09-14T18:34:37.645Z,15.50
2017-09-14T18:39:39.878Z,15.54
2017-09-14T18:44:41.847Z,15.60
2017-09-14T18:49:47.290Z,15.60
2017-09-14T18:54:49.475Z,15.59
2017-09-14T18:59:51.501Z,15.72
2017-09-14T19:04:53.622Z,15.83
2017-09-14T19:09:56.659Z,15.80
2017-09-14T19:15:01.215Z,15.95
2017-09-14T19:20:07.103Z,15.96
2017-09-14T19:25:09.991Z,15.93
2017-09-14T19:30:12.015Z,15.89
2017-09-14T19:35:17.068Z,15.96
2017-09-14T19:40:22.275Z,16.01
2017-09-14T19:45:24.872Z,15.93
2017-09-14T19:50:27.052Z,16.09
2017-09-14T19:55:29.748Z,16.19
2017-09-14T20:00:31.725Z,16.05
2017-09-14T20:05:34.386Z,16.10
2017-09-14T20:10:36.350Z,16.18
2017-09-14T20:15:43.760Z,16.32
2017-09-14T20:20:46.255Z,16.32
2017-09-14T20:25:48.642Z,16.36
2017-09-14T20:30:51.108Z,16.35
2017-09-14T20:35:54.228Z,16.24
2017-09-14T20:40:56.191Z,16.15
2017-09-14T20:45:58.234Z,16.09
2017-09-14T20:51:00.196Z,16.06
2017-09-14T20:56:02.172Z,16.21
2017-09-14T21:01:05.626Z,16.05
2017-09-14T21:06:07.614Z,15.85
2017-09-14T21:11:09.569Z,15.78
2017-09-14T21:16:12.256Z,15.52
2017-09-14T21:21:14.262Z,15.53
2017-09-14T21:26:16.200Z,15.40
2017-09-14T21:31:18.191Z,15.33
2017-09-14T21:36:20.291Z,15.27
2017-09-14T21:41:22.993Z,15.29
2017-09-14T21:46:25.642Z,15.39
2017-09-14T21:51:27.633Z,15.42
2017-09-14T21:56:29.593Z,15.29
2017-09-14T22:01:31.592Z,15.37
2017-09-14T22:06:34.298Z,15.43
2017-09-14T22:11:36.250Z,15.58
2017-09-14T22:16:38.280Z,15.61
2017-09-14T22:21:40.269Z,15.61
2017-09-14T22:26:42.227Z,15.65
2017-09-14T22:31:44.219Z,15.67
2017-09-14T22:36:46.268Z,15.66
2017-09-14T22:41:48.219Z,15.65
2017-09-14T22:46:50.409Z,15.71
2017-09-14T22:51:52.433Z,15.68
2017-09-14T22:56:54.461Z,15.74
2017-09-14T23:01:57.059Z,15.66
2017-09-14T23:06:59.753Z,15.49
2017-09-14T23:12:02.382Z,15.35
2017-09-14T23:17:04.361Z,15.43
2017-09-14T23:22:06.335Z,15.28
2017-09-14T23:27:09.458Z,15.28
2017-09-14T23:32:11.565Z,15.15
2017-09-14T23:37:14.379Z,15.06
2017-09-14T23:42:16.456Z,15.07
2017-09-14T23:47:18.438Z,15.08
2017-09-14T23:52:20.408Z,14.95
2017-09-14T23:57:22.367Z,14.88
